sensor_id;sensor_type;location;lat;lon;timestamp;pressure;altitude;pressure_sealevel;temperature;humidity
28797;BME280;24974;54.444;18.560;2023-02-11T00:01:35;101909.22;;;7.18;60.92
28797;BME280;24974;54.444;18.560;2023-02-11T00:04:06;101915.56;;;7.23;60.36
28797;BME280;24974;54.444;18.560;2023-02-11T00:06:37;101915.75;;;7.71;59.39
28797;BME280;24974;54.444;18.560;2023-02-11T00:09:09;101902.91;;;7.17;60.16
28797;BME280;24974;54.444;18.560;2023-02-11T00:11:40;101901.19;;;7.65;59.22
28797;BME280;24974;54.444;18.560;2023-02-11T00:14:11;101883.50;;;7.78;58.56
28797;BME280;24974;54.444;18.560;2023-02-11T00:16:42;101857.84;;;6.71;61.47
28797;BME280;24974;54.444;18.560;2023-02-11T00:19:13;101854.91;;;7.58;59.33
28797;BME280;24974;54.444;18.560;2023-02-11T00:21:44;101845.69;;;7.38;59.34
28797;BME280;24974;54.444;18.560;2023-02-11T00:24:15;101845.66;;;7.65;58.53
28797;BME280;24974;54.444;18.560;2023-02-11T00:26:45;101829.19;;;7.60;59.59
28797;BME280;24974;54.444;18.560;2023-02-11T00:29:16;101802.31;;;7.89;58.12
28797;BME280;24974;54.444;18.560;2023-02-11T00:31:47;101793.84;;;7.53;59.10
28797;BME280;24974;54.444;18.560;2023-02-11T00:34:18;101794.25;;;8.14;57.23
28797;BME280;24974;54.444;18.560;2023-02-11T00:36:49;101788.19;;;7.65;58.04
28797;BME280;24974;54.444;18.560;2023-02-11T00:39:21;101766.75;;;7.51;58.85
28797;BME280;24974;54.444;18.560;2023-02-11T00:41:52;101761.59;;;7.55;58.64
28797;BME280;24974;54.444;18.560;2023-02-11T00:44:23;101760.16;;;8.42;56.20
28797;BME280;24974;54.444;18.560;2023-02-11T00:46:54;101753.63;;;7.96;57.68
28797;BME280;24974;54.444;18.560;2023-02-11T00:49:25;101740.66;;;7.01;60.32
28797;BME280;24974;54.444;18.560;2023-02-11T00:51:56;101748.03;;;7.75;57.74
28797;BME280;24974;54.444;18.560;2023-02-11T00:54:26;101739.72;;;7.55;58.79
28797;BME280;24974;54.444;18.560;2023-02-11T00:56:57;101726.66;;;7.67;57.83
28797;BME280;24974;54.444;18.560;2023-02-11T00:59:28;101731.22;;;7.19;59.42
28797;BME280;24974;54.444;18.560;2023-02-11T01:01:59;101702.50;;;8.17;56.88
28797;BME280;24974;54.444;18.560;2023-02-11T01:04:30;101716.63;;;7.41;58.49
28797;BME280;24974;54.444;18.560;2023-02-11T01:07:01;101705.16;;;7.44;58.60
28797;BME280;24974;54.444;18.560;2023-02-11T01:09:32;101705.53;;;7.57;58.29
28797;BME280;24974;54.444;18.560;2023-02-11T05:17:58;101273.34;;;7.57;65.88
28797;BME280;24974;54.444;18.560;2023-02-11T05:20:29;101253.56;;;7.96;65.35
28797;BME280;24974;54.444;18.560;2023-02-11T05:23:00;101262.09;;;7.74;65.82
28797;BME280;24974;54.444;18.560;2023-02-11T05:25:30;101260.19;;;7.60;65.95
28797;BME280;24974;54.444;18.560;2023-02-11T05:28:01;101259.78;;;8.17;64.42
28797;BME280;24974;54.444;18.560;2023-02-11T05:30:32;101253.84;;;7.90;65.47
28797;BME280;24974;54.444;18.560;2023-02-11T05:33:03;101263.19;;;7.73;65.21
28797;BME280;24974;54.444;18.560;2023-02-11T05:35:34;101246.13;;;8.72;62.43
28797;BME280;24974;54.444;18.560;2023-02-11T05:38:05;101245.69;;;7.64;65.43
28797;BME280;24974;54.444;18.560;2023-02-11T05:40:36;101239.78;;;8.17;65.33
28797;BME280;24974;54.444;18.560;2023-02-11T05:43:06;101218.28;;;7.84;65.15
28797;BME280;24974;54.444;18.560;2023-02-11T05:45:37;101219.41;;;7.73;65.55
28797;BME280;24974;54.444;18.560;2023-02-11T05:48:08;101207.91;;;7.76;65.83
28797;BME280;24974;54.444;18.560;2023-02-11T05:50:39;101218.06;;;7.71;66.22
28797;BME280;24974;54.444;18.560;2023-02-11T05:53:10;101193.50;;;7.40;67.70
28797;BME280;24974;54.444;18.560;2023-02-11T05:55:41;101183.44;;;8.10;65.48
28797;BME280;24974;54.444;18.560;2023-02-11T05:58:12;101198.09;;;7.70;66.35
28797;BME280;24974;54.444;18.560;2023-02-11T06:00:43;101178.09;;;7.80;66.52
28797;BME280;24974;54.444;18.560;2023-02-11T06:03:14;101185.75;;;7.68;66.58
28797;BME280;24974;54.444;18.560;2023-02-11T06:05:45;101151.06;;;7.63;67.15
28797;BME280;24974;54.444;18.560;2023-02-11T06:08:16;101171.56;;;7.66;66.90
28797;BME280;24974;54.444;18.560;2023-02-11T06:10:46;101174.00;;;7.67;66.49
28797;BME280;24974;54.444;18.560;2023-02-11T06:13:17;101152.41;;;7.61;67.50
28797;BME280;24974;54.444;18.560;2023-02-11T06:15:59;101145.44;;;7.99;66.29
28797;BME280;24974;54.444;18.560;2023-02-11T06:18:30;101168.78;;;7.76;66.71
28797;BME280;24974;54.444;18.560;2023-02-11T06:21:09;101151.28;;;8.31;65.83
28797;BME280;24974;54.444;18.560;2023-02-11T06:23:40;101152.13;;;7.67;67.33
28797;BME280;24974;54.444;18.560;2023-02-11T06:26:17;101142.28;;;7.66;67.47
28797;BME280;24974;54.444;18.560;2023-02-11T06:28:49;101128.31;;;7.73;68.29
28797;BME280;24974;54.444;18.560;2023-02-11T06:31:20;101132.34;;;7.85;67.01
28797;BME280;24974;54.444;18.560;2023-02-11T06:33:51;101122.84;;;8.27;66.45
28797;BME280;24974;54.444;18.560;2023-02-11T06:36:24;101124.25;;;8.20;67.31
28797;BME280;24974;54.444;18.560;2023-02-11T06:38:55;101137.06;;;7.70;69.05
28797;BME280;24974;54.444;18.560;2023-02-11T06:41:26;101148.09;;;8.19;67.67
28797;BME280;24974;54.444;18.560;2023-02-11T06:43:57;101162.97;;;7.98;67.94
28797;BME280;24974;54.444;18.560;2023-02-11T06:46:28;101161.84;;;8.58;66.18
28797;BME280;24974;54.444;18.560;2023-02-11T06:48:58;101179.47;;;8.32;67.09
28797;BME280;24974;54.444;18.560;2023-02-11T06:51:29;101173.59;;;8.04;68.08
28797;BME280;24974;54.444;18.560;2023-02-11T06:54:00;101181.06;;;9.21;65.03
28797;BME280;24974;54.444;18.560;2023-02-11T06:56:31;101205.78;;;8.38;66.95
28797;BME280;24974;54.444;18.560;2023-02-11T06:59:03;101197.88;;;8.26;67.10
28797;BME280;24974;54.444;18.560;2023-02-11T07:01:33;101182.22;;;8.81;66.08
28797;BME280;24974;54.444;18.560;2023-02-11T07:04:04;101158.66;;;8.80;65.38
28797;BME280;24974;54.444;18.560;2023-02-11T07:06:36;101171.91;;;8.68;66.19
28797;BME280;24974;54.444;18.560;2023-02-11T07:09:08;101169.28;;;8.87;65.63
28797;BME280;24974;54.444;18.560;2023-02-11T07:11:39;101168.16;;;9.22;65.01
28797;BME280;24974;54.444;18.560;2023-02-11T07:14:09;101181.78;;;8.64;66.53
28797;BME280;24974;54.444;18.560;2023-02-11T07:16:40;101176.19;;;8.79;66.61
28797;BME280;24974;54.444;18.560;2023-02-11T07:19:11;101161.56;;;8.60;66.98
28797;BME280;24974;54.444;18.560;2023-02-11T07:21:42;101151.91;;;9.31;65.27
28797;BME280;24974;54.444;18.560;2023-02-11T07:24:13;101144.91;;;8.85;66.70
28797;BME280;24974;54.444;18.560;2023-02-11T07:26:44;101139.56;;;9.28;65.39
28797;BME280;24974;54.444;18.560;2023-02-11T07:29:15;101139.19;;;9.40;65.18
28797;BME280;24974;54.444;18.560;2023-02-11T07:31:45;101118.47;;;9.00;65.48
28797;BME280;24974;54.444;18.560;2023-02-11T07:34:16;101116.63;;;8.90;66.40
28797;BME280;24974;54.444;18.560;2023-02-11T07:36:47;101130.34;;;9.48;64.62
28797;BME280;24974;54.444;18.560;2023-02-11T07:39:18;101101.53;;;9.21;65.56
28797;BME280;24974;54.444;18.560;2023-02-11T07:41:51;101132.94;;;8.76;66.62
28797;BME280;24974;54.444;18.560;2023-02-11T07:44:22;101110.69;;;9.36;65.09
28797;BME280;24974;54.444;18.560;2023-02-11T07:46:52;101100.72;;;9.69;63.67
28797;BME280;24974;54.444;18.560;2023-02-11T07:49:24;101097.66;;;9.70;64.13
28797;BME280;24974;54.444;18.560;2023-02-11T07:51:55;101087.94;;;9.59;64.17
28797;BME280;24974;54.444;18.560;2023-02-11T07:54:25;101105.63;;;9.24;65.21
28797;BME280;24974;54.444;18.560;2023-02-11T07:56:56;101120.72;;;9.93;63.48
28797;BME280;24974;54.444;18.560;2023-02-11T07:59:28;101102.34;;;9.70;64.09
28797;BME280;24974;54.444;18.560;2023-02-11T08:01:59;101088.19;;;9.15;65.89
28797;BME280;24974;54.444;18.560;2023-02-11T08:04:29;101120.59;;;9.08;65.79
28797;BME280;24974;54.444;18.560;2023-02-11T08:07:00;101085.16;;;9.64;64.40
28797;BME280;24974;54.444;18.560;2023-02-11T08:09:31;101086.69;;;9.70;65.90
28797;BME280;24974;54.444;18.560;2023-02-11T08:12:02;101157.34;;;9.07;66.15
28797;BME280;24974;54.444;18.560;2023-02-11T08:14:33;101122.44;;;9.41;64.63
28797;BME280;24974;54.444;18.560;2023-02-11T08:17:03;101093.78;;;9.29;65.77
28797;BME280;24974;54.444;18.560;2023-02-11T08:19:34;101106.94;;;9.56;64.65
28797;BME280;24974;54.444;18.560;2023-02-11T08:22:05;101121.03;;;9.68;63.95
28797;BME280;24974;54.444;18.560;2023-02-11T08:24:36;101112.25;;;9.18;65.67
28797;BME280;24974;54.444;18.560;2023-02-11T08:27:07;101079.66;;;9.16;65.88
28797;BME280;24974;54.444;18.560;2023-02-11T08:29:38;101088.22;;;9.10;66.45
28797;BME280;24974;54.444;18.560;2023-02-11T08:32:08;101075.81;;;9.41;65.90
28797;BME280;24974;54.444;18.560;2023-02-11T08:34:39;101066.94;;;9.25;65.93
28797;BME280;24974;54.444;18.560;2023-02-11T08:37:10;101087.22;;;9.72;64.67
28797;BME280;24974;54.444;18.560;2023-02-11T08:39:41;101075.16;;;9.73;64.62
28797;BME280;24974;54.444;18.560;2023-02-11T08:42:12;101051.88;;;9.47;65.40
28797;BME280;24974;54.444;18.560;2023-02-11T08:44:45;101077.25;;;9.58;64.97
28797;BME280;24974;54.444;18.560;2023-02-11T08:47:15;101066.78;;;10.02;64.05
28797;BME280;24974;54.444;18.560;2023-02-11T08:49:46;101071.13;;;9.66;64.97
28797;BME280;24974;54.444;18.560;2023-02-11T08:52:17;101074.13;;;9.88;64.63
28797;BME280;24974;54.444;18.560;2023-02-11T08:54:48;101087.97;;;9.78;64.62
28797;BME280;24974;54.444;18.560;2023-02-11T08:57:18;101095.38;;;10.20;63.32
28797;BME280;24974;54.444;18.560;2023-02-11T08:59:49;101092.28;;;9.41;65.47
28797;BME280;24974;54.444;18.560;2023-02-11T09:02:20;101106.66;;;9.28;66.42
28797;BME280;24974;54.444;18.560;2023-02-11T09:04:51;101107.28;;;9.92;64.75
28797;BME280;24974;54.444;18.560;2023-02-11T09:07:22;101117.50;;;9.86;65.09
28797;BME280;24974;54.444;18.560;2023-02-11T09:09:53;101111.88;;;9.53;66.16
28797;BME280;24974;54.444;18.560;2023-02-11T09:12:24;101102.03;;;9.95;65.83
28797;BME280;24974;54.444;18.560;2023-02-11T09:14:54;101097.13;;;9.92;66.60
28797;BME280;24974;54.444;18.560;2023-02-11T09:17:25;101112.88;;;9.63;66.64
28797;BME280;24974;54.444;18.560;2023-02-11T09:19:56;101097.41;;;9.91;66.45
28797;BME280;24974;54.444;18.560;2023-02-11T09:22:27;101086.50;;;9.86;66.08
28797;BME280;24974;54.444;18.560;2023-02-11T09:24:58;101086.94;;;9.93;66.60
28797;BME280;24974;54.444;18.560;2023-02-11T09:27:29;101085.19;;;10.91;63.99
28797;BME280;24974;54.444;18.560;2023-02-11T09:29:59;101092.09;;;10.18;65.46
28797;BME280;24974;54.444;18.560;2023-02-11T09:32:30;101111.22;;;10.80;64.85
28797;BME280;24974;54.444;18.560;2023-02-11T09:35:01;101117.50;;;9.86;66.68
28797;BME280;24974;54.444;18.560;2023-02-11T09:37:32;101109.72;;;9.74;67.56
28797;BME280;24974;54.444;18.560;2023-02-11T09:40:04;101130.06;;;10.54;65.01
28797;BME280;24974;54.444;18.560;2023-02-11T09:45:25;101133.81;;;9.77;67.00
28797;BME280;24974;54.444;18.560;2023-02-11T09:48:03;101148.59;;;9.81;66.08
28797;BME280;24974;54.444;18.560;2023-02-11T09:50:41;101153.97;;;10.34;65.56
28797;BME280;24974;54.444;18.560;2023-02-11T09:53:35;101149.63;;;9.86;66.96
28797;BME280;24974;54.444;18.560;2023-02-11T09:56:13;101150.56;;;10.24;66.21
28797;BME280;24974;54.444;18.560;2023-02-11T09:58:44;101137.38;;;9.78;67.34
28797;BME280;24974;54.444;18.560;2023-02-11T10:07:20;101150.41;;;10.72;65.69
28797;BME280;24974;54.444;18.560;2023-02-11T10:10:03;101150.13;;;10.35;66.03
28797;BME280;24974;54.444;18.560;2023-02-11T10:13:09;101152.19;;;10.25;66.53
28797;BME280;24974;54.444;18.560;2023-02-11T10:18:39;101169.94;;;10.70;65.27
28797;BME280;24974;54.444;18.560;2023-02-11T10:21:56;101172.84;;;10.17;65.93
28797;BME280;24974;54.444;18.560;2023-02-11T10:24:23;101178.28;;;11.16;63.51
28797;BME280;24974;54.444;18.560;2023-02-11T10:26:54;101180.19;;;10.27;65.55
28797;BME280;24974;54.444;18.560;2023-02-11T10:29:50;101194.53;;;10.80;64.10
28797;BME280;24974;54.444;18.560;2023-02-11T10:32:31;101200.91;;;10.57;65.22
28797;BME280;24974;54.444;18.560;2023-02-11T10:35:13;101197.50;;;10.46;65.37
28797;BME280;24974;54.444;18.560;2023-02-11T10:37:45;101211.47;;;10.87;64.22
28797;BME280;24974;54.444;18.560;2023-02-11T10:40:21;101212.28;;;10.69;65.01
28797;BME280;24974;54.444;18.560;2023-02-11T10:42:54;101212.16;;;10.60;65.13
28797;BME280;24974;54.444;18.560;2023-02-11T10:48:06;101249.16;;;10.68;65.43
28797;BME280;24974;54.444;18.560;2023-02-11T10:51:18;101244.34;;;10.36;67.32
28797;BME280;24974;54.444;18.560;2023-02-11T10:54:10;101250.31;;;10.81;65.80
28797;BME280;24974;54.444;18.560;2023-02-11T10:56:50;101246.38;;;10.25;66.66
28797;BME280;24974;54.444;18.560;2023-02-11T10:59:26;101243.19;;;10.80;65.89
28797;BME280;24974;54.444;18.560;2023-02-11T11:02:01;101255.28;;;11.16;64.10
28797;BME280;24974;54.444;18.560;2023-02-11T11:04:46;101261.19;;;10.29;66.26
28797;BME280;24974;54.444;18.560;2023-02-11T11:07:29;101263.66;;;10.92;65.04
28797;BME280;24974;54.444;18.560;2023-02-11T11:12:56;101262.59;;;10.88;64.21
28797;BME280;24974;54.444;18.560;2023-02-11T11:15:29;101273.53;;;11.45;63.00
28797;BME280;24974;54.444;18.560;2023-02-11T11:18:20;101269.09;;;10.55;65.55
28797;BME280;24974;54.444;18.560;2023-02-11T11:20:57;101294.78;;;10.45;65.34
28797;BME280;24974;54.444;18.560;2023-02-11T11:23:30;101278.94;;;10.99;63.75
28797;BME280;24974;54.444;18.560;2023-02-11T11:31:29;101295.28;;;10.28;65.29
28797;BME280;24974;54.444;18.560;2023-02-11T11:34:21;101318.06;;;10.29;65.27
28797;BME280;24974;54.444;18.560;2023-02-11T11:36:54;101300.09;;;10.60;64.59
28797;BME280;24974;54.444;18.560;2023-02-11T11:39:31;101310.75;;;11.24;62.70
28797;BME280;24974;54.444;18.560;2023-02-11T11:42:20;101313.81;;;11.03;62.83
28797;BME280;24974;54.444;18.560;2023-02-11T11:48:37;101306.66;;;11.72;61.13
28797;BME280;24974;54.444;18.560;2023-02-11T11:51:03;101326.81;;;11.68;61.37
28797;BME280;24974;54.444;18.560;2023-02-11T11:53:45;101331.34;;;10.88;63.18
28797;BME280;24974;54.444;18.560;2023-02-11T11:56:23;101330.75;;;10.49;64.30
28797;BME280;24974;54.444;18.560;2023-02-11T11:58:54;101336.31;;;10.86;63.35
28797;BME280;24974;54.444;18.560;2023-02-11T12:01:39;101335.88;;;10.98;62.94
28797;BME280;24974;54.444;18.560;2023-02-11T12:10:14;101361.81;;;10.92;62.67
28797;BME280;24974;54.444;18.560;2023-02-11T12:15:54;101339.47;;;11.17;61.83
28797;BME280;24974;54.444;18.560;2023-02-11T12:26:50;101353.66;;;11.43;60.46
28797;BME280;24974;54.444;18.560;2023-02-11T12:32:55;101367.91;;;10.65;62.57
28797;BME280;24974;54.444;18.560;2023-02-11T12:38:55;101374.69;;;11.72;60.12
28797;BME280;24974;54.444;18.560;2023-02-11T12:41:40;101384.94;;;11.66;60.19
28797;BME280;24974;54.444;18.560;2023-02-11T12:55:38;101390.09;;;11.35;59.82
28797;BME280;24974;54.444;18.560;2023-02-11T12:58:15;101398.13;;;12.35;58.13
28797;BME280;24974;54.444;18.560;2023-02-11T13:01:09;101407.00;;;12.31;57.81
28797;BME280;24974;54.444;18.560;2023-02-11T13:03:55;101415.91;;;12.28;57.81
28797;BME280;24974;54.444;18.560;2023-02-11T13:06:41;101409.84;;;12.26;58.09
28797;BME280;24974;54.444;18.560;2023-02-11T13:09:23;101423.22;;;12.19;58.25
28797;BME280;24974;54.444;18.560;2023-02-11T13:11:58;101420.81;;;11.61;59.82
28797;BME280;24974;54.444;18.560;2023-02-11T13:14:55;101435.69;;;11.79;59.72
28797;BME280;24974;54.444;18.560;2023-02-11T13:17:59;101426.38;;;11.75;58.93
28797;BME280;24974;54.444;18.560;2023-02-11T13:20:39;101434.50;;;12.04;58.53
28797;BME280;24974;54.444;18.560;2023-02-11T13:31:38;101438.19;;;11.81;58.99
28797;BME280;24974;54.444;18.560;2023-02-11T13:34:24;101442.91;;;12.13;58.06
28797;BME280;24974;54.444;18.560;2023-02-11T13:36:56;101453.19;;;12.07;57.94
28797;BME280;24974;54.444;18.560;2023-02-11T13:39:27;101454.63;;;11.86;59.09
28797;BME280;24974;54.444;18.560;2023-02-11T13:42:02;101462.00;;;12.23;57.57
28797;BME280;24974;54.444;18.560;2023-02-11T13:44:33;101449.53;;;11.74;58.63
28797;BME280;24974;54.444;18.560;2023-02-11T13:47:05;101445.47;;;12.23;57.37
28797;BME280;24974;54.444;18.560;2023-02-11T13:49:41;101473.06;;;12.04;58.25
28797;BME280;24974;54.444;18.560;2023-02-11T13:52:29;101481.34;;;11.85;58.84
28797;BME280;24974;54.444;18.560;2023-02-11T13:57:44;101483.97;;;11.95;58.17
28797;BME280;24974;54.444;18.560;2023-02-11T14:06:16;101505.78;;;12.43;56.51
28797;BME280;24974;54.444;18.560;2023-02-11T14:14:31;101534.22;;;12.39;56.95
28797;BME280;24974;54.444;18.560;2023-02-11T14:19:39;101542.22;;;12.21;56.99
28797;BME280;24974;54.444;18.560;2023-02-11T14:22:15;101561.81;;;12.01;57.74
28797;BME280;24974;54.444;18.560;2023-02-11T14:24:51;101562.28;;;11.89;57.71
28797;BME280;24974;54.444;18.560;2023-02-11T14:36:04;101594.19;;;11.90;57.61
28797;BME280;24974;54.444;18.560;2023-02-11T14:41:48;101598.91;;;12.79;54.79
28797;BME280;24974;54.444;18.560;2023-02-11T14:44:21;101619.94;;;11.81;57.22
28797;BME280;24974;54.444;18.560;2023-02-11T14:46:54;101637.28;;;11.81;57.03
28797;BME280;24974;54.444;18.560;2023-02-11T14:49:35;101636.09;;;12.11;56.24
28797;BME280;24974;54.444;18.560;2023-02-11T14:54:48;101657.53;;;12.33;56.32
28797;BME280;24974;54.444;18.560;2023-02-11T14:57:21;101670.44;;;11.47;58.36
28797;BME280;24974;54.444;18.560;2023-02-11T15:00:03;101670.34;;;11.81;58.69
28797;BME280;24974;54.444;18.560;2023-02-11T15:02:36;101677.25;;;11.26;60.60
28797;BME280;24974;54.444;18.560;2023-02-11T15:05:27;101686.00;;;10.99;62.15
28797;BME280;24974;54.444;18.560;2023-02-11T15:08:03;101686.78;;;11.04;61.87
28797;BME280;24974;54.444;18.560;2023-02-11T15:10:42;101695.03;;;11.04;61.78
28797;BME280;24974;54.444;18.560;2023-02-11T15:13:20;101715.84;;;10.37;63.79
28797;BME280;24974;54.444;18.560;2023-02-11T15:15:58;101708.09;;;11.81;60.18
28797;BME280;24974;54.444;18.560;2023-02-11T15:18:38;101728.09;;;10.99;62.66
28797;BME280;24974;54.444;18.560;2023-02-11T15:21:10;101737.47;;;11.27;61.47
28797;BME280;24974;54.444;18.560;2023-02-11T15:23:54;101732.59;;;10.85;62.21
28797;BME280;24974;54.444;18.560;2023-02-11T15:26:26;101737.72;;;10.97;61.84
28797;BME280;24974;54.444;18.560;2023-02-11T15:28:58;101741.25;;;11.02;61.18
28797;BME280;24974;54.444;18.560;2023-02-11T15:31:30;101744.75;;;11.13;60.76
28797;BME280;24974;54.444;18.560;2023-02-11T15:34:06;101754.53;;;10.90;60.97
28797;BME280;24974;54.444;18.560;2023-02-11T15:36:38;101759.66;;;11.07;60.80
28797;BME280;24974;54.444;18.560;2023-02-11T15:39:42;101755.22;;;11.11;60.21
28797;BME280;24974;54.444;18.560;2023-02-11T15:42:29;101761.94;;;10.95;60.12
28797;BME280;24974;54.444;18.560;2023-02-11T15:45:08;101776.16;;;11.07;59.72
28797;BME280;24974;54.444;18.560;2023-02-11T15:47:45;101777.00;;;10.58;60.73
28797;BME280;24974;54.444;18.560;2023-02-11T15:50:23;101786.94;;;10.98;59.83
28797;BME280;24974;54.444;18.560;2023-02-11T15:52:56;101809.50;;;10.51;60.70
28797;BME280;24974;54.444;18.560;2023-02-11T15:55:28;101805.66;;;10.96;58.92
28797;BME280;24974;54.444;18.560;2023-02-11T15:58:00;101816.81;;;10.71;59.47
28797;BME280;24974;54.444;18.560;2023-02-11T16:00:35;101828.97;;;10.59;60.01
28797;BME280;24974;54.444;18.560;2023-02-11T16:03:23;101843.13;;;10.87;59.17
28797;BME280;24974;54.444;18.560;2023-02-11T16:05:54;101853.25;;;10.97;58.16
28797;BME280;24974;54.444;18.560;2023-02-11T16:08:27;101859.09;;;10.80;58.68
28797;BME280;24974;54.444;18.560;2023-02-11T16:11:01;101878.47;;;10.54;58.87
28797;BME280;24974;54.444;18.560;2023-02-11T16:13:45;101882.91;;;10.40;59.11
28797;BME280;24974;54.444;18.560;2023-02-11T16:16:28;101903.56;;;10.27;59.10
28797;BME280;24974;54.444;18.560;2023-02-11T16:19:02;101917.78;;;11.19;56.69
28797;BME280;24974;54.444;18.560;2023-02-11T16:21:36;101921.00;;;10.72;57.42
28797;BME280;24974;54.444;18.560;2023-02-11T16:24:18;101941.72;;;10.44;58.16
28797;BME280;24974;54.444;18.560;2023-02-11T16:26:53;101941.44;;;10.41;57.86
28797;BME280;24974;54.444;18.560;2023-02-11T16:29:27;101958.00;;;11.10;56.60
28797;BME280;24974;54.444;18.560;2023-02-11T16:32:08;101962.59;;;10.09;58.85
28797;BME280;24974;54.444;18.560;2023-02-11T16:34:39;101973.84;;;9.98;59.06
28797;BME280;24974;54.444;18.560;2023-02-11T16:37:10;101982.94;;;10.29;58.49
28797;BME280;24974;54.444;18.560;2023-02-11T16:39:41;101990.88;;;10.10;58.62
28797;BME280;24974;54.444;18.560;2023-02-11T16:42:12;102001.84;;;10.00;59.13
28797;BME280;24974;54.444;18.560;2023-02-11T16:44:42;102004.13;;;10.28;58.07
28797;BME280;24974;54.444;18.560;2023-02-11T16:47:27;102013.78;;;9.38;60.51
28797;BME280;24974;54.444;18.560;2023-02-11T16:50:00;102011.25;;;9.16;60.16
28797;BME280;24974;54.444;18.560;2023-02-11T16:52:32;102029.13;;;9.29;59.78
28797;BME280;24974;54.444;18.560;2023-02-11T16:55:04;102043.59;;;9.14;59.96
28797;BME280;24974;54.444;18.560;2023-02-11T16:57:35;102046.22;;;9.51;59.07
28797;BME280;24974;54.444;18.560;2023-02-11T17:00:06;102057.75;;;9.48;58.99
28797;BME280;24974;54.444;18.560;2023-02-11T17:02:38;102059.25;;;9.18;59.55
28797;BME280;24974;54.444;18.560;2023-02-11T17:05:16;102069.75;;;9.37;58.88
28797;BME280;24974;54.444;18.560;2023-02-11T17:07:48;102079.91;;;8.84;59.45
28797;BME280;24974;54.444;18.560;2023-02-11T17:10:21;102100.84;;;8.63;59.63
28797;BME280;24974;54.444;18.560;2023-02-11T17:12:52;102104.69;;;9.04;58.46
28797;BME280;24974;54.444;18.560;2023-02-11T17:15:23;102113.75;;;9.05;58.01
28797;BME280;24974;54.444;18.560;2023-02-11T17:17:54;102121.75;;;9.11;57.70
28797;BME280;24974;54.444;18.560;2023-02-11T17:20:25;102130.09;;;8.89;58.30
28797;BME280;24974;54.444;18.560;2023-02-11T17:22:56;102144.34;;;8.54;58.41
28797;BME280;24974;54.444;18.560;2023-02-11T17:25:27;102137.38;;;8.74;57.52
28797;BME280;24974;54.444;18.560;2023-02-11T17:27:58;102154.47;;;8.86;56.80
28797;BME280;24974;54.444;18.560;2023-02-11T17:30:29;102153.25;;;8.39;57.69
28797;BME280;24974;54.444;18.560;2023-02-11T17:33:00;102157.44;;;7.98;58.15
28797;BME280;24974;54.444;18.560;2023-02-11T17:35:31;102167.41;;;8.58;56.31
28797;BME280;24974;54.444;18.560;2023-02-11T17:38:02;102170.19;;;8.63;55.84
28797;BME280;24974;54.444;18.560;2023-02-11T17:40:33;102177.94;;;8.72;55.52
28797;BME280;24974;54.444;18.560;2023-02-11T17:43:04;102187.78;;;8.67;55.36
28797;BME280;24974;54.444;18.560;2023-02-11T17:45:40;102194.25;;;8.34;55.73
28797;BME280;24974;54.444;18.560;2023-02-11T17:48:12;102199.81;;;8.18;56.11
28797;BME280;24974;54.444;18.560;2023-02-11T17:50:43;102206.97;;;8.19;55.37
28797;BME280;24974;54.444;18.560;2023-02-11T17:53:14;102197.41;;;8.43;54.51
28797;BME280;24974;54.444;18.560;2023-02-11T17:55:45;102212.75;;;8.44;54.19
28797;BME280;24974;54.444;18.560;2023-02-11T17:58:16;102219.78;;;8.62;53.04
28797;BME280;24974;54.444;18.560;2023-02-11T18:00:50;102223.50;;;8.51;52.92
28797;BME280;24974;54.444;18.560;2023-02-11T18:03:21;102236.09;;;8.79;52.54
28797;BME280;24974;54.444;18.560;2023-02-11T18:05:51;102241.16;;;7.55;54.38
28797;BME280;24974;54.444;18.560;2023-02-11T18:08:22;102251.31;;;7.77;53.48
28797;BME280;24974;54.444;18.560;2023-02-11T18:10:53;102250.56;;;8.74;51.76
28797;BME280;24974;54.444;18.560;2023-02-11T18:13:25;102260.59;;;8.58;51.82
28797;BME280;24974;54.444;18.560;2023-02-11T18:16:04;102270.75;;;8.90;51.23
28797;BME280;24974;54.444;18.560;2023-02-11T18:18:35;102270.75;;;8.36;52.05
28797;BME280;24974;54.444;18.560;2023-02-11T18:21:06;102264.22;;;8.20;52.83
28797;BME280;24974;54.444;18.560;2023-02-11T18:23:38;102279.84;;;8.95;51.45
28797;BME280;24974;54.444;18.560;2023-02-11T18:26:10;102277.97;;;8.47;52.13
28797;BME280;24974;54.444;18.560;2023-02-11T18:28:42;102282.00;;;8.39;52.67
28797;BME280;24974;54.444;18.560;2023-02-11T18:31:13;102293.50;;;8.20;53.16
28797;BME280;24974;54.444;18.560;2023-02-11T18:33:44;102291.00;;;8.35;53.12
28797;BME280;24974;54.444;18.560;2023-02-11T18:36:15;102295.44;;;8.19;53.29
28797;BME280;24974;54.444;18.560;2023-02-11T18:38:46;102305.09;;;8.05;54.06
28797;BME280;24974;54.444;18.560;2023-02-11T18:41:17;102307.91;;;7.93;54.86
28797;BME280;24974;54.444;18.560;2023-02-11T18:43:48;102316.75;;;8.17;54.16
28797;BME280;24974;54.444;18.560;2023-02-11T18:46:19;102323.34;;;7.99;54.84
28797;BME280;24974;54.444;18.560;2023-02-11T18:48:50;102322.34;;;8.05;54.31
28797;BME280;24974;54.444;18.560;2023-02-11T18:51:22;102335.41;;;7.81;54.87
28797;BME280;24974;54.444;18.560;2023-02-11T18:53:53;102341.75;;;8.64;52.18
28797;BME280;24974;54.444;18.560;2023-02-11T18:56:24;102352.78;;;8.91;51.84
28797;BME280;24974;54.444;18.560;2023-02-11T18:58:57;102357.78;;;8.51;52.79
28797;BME280;24974;54.444;18.560;2023-02-11T19:01:31;102362.06;;;8.08;53.39
28797;BME280;24974;54.444;18.560;2023-02-11T19:04:04;102367.25;;;8.87;52.03
28797;BME280;24974;54.444;18.560;2023-02-11T19:06:36;102368.53;;;8.79;52.59
28797;BME280;24974;54.444;18.560;2023-02-11T19:09:09;102380.34;;;8.02;53.86